sensor_id;sensor_type;location;lat;lon;timestamp;temperature;humidity
16485;DHT22;8353;47.856;12.344;2022-11-04T00:01:19;13.70;99.90
16485;DHT22;8353;47.856;12.344;2022-11-04T00:03:51;13.60;99.90
16485;DHT22;8353;47.856;12.344;2022-11-04T00:06:22;13.40;99.90
16485;DHT22;8353;47.856;12.344;2022-11-04T00:08:54;13.40;99.90
16485;DHT22;8353;47.856;12.344;2022-11-04T00:11:27;13.40;99.90
16485;DHT22;8353;47.856;12.344;2022-11-04T00:14:16;13.10;99.90
16485;DHT22;8353;47.856;12.344;2022-11-04T00:16:48;13.00;99.90
16485;DHT22;8353;47.856;12.344;2022-11-04T00:19:36;13.00;99.90
16485;DHT22;8353;47.856;12.344;2022-11-04T00:22:24;12.90;99.90
16485;DHT22;8353;47.856;12.344;2022-11-04T00:25:11;12.80;99.90
16485;DHT22;8353;47.856;12.344;2022-11-04T00:28:04;12.80;99.90
16485;DHT22;8353;47.856;12.344;2022-11-04T00:30:55;12.80;99.90
16485;DHT22;8353;47.856;12.344;2022-11-04T00:33:26;12.80;99.90
16485;DHT22;8353;47.856;12.344;2022-11-04T00:35:56;12.80;99.90
16485;DHT22;8353;47.856;12.344;2022-11-04T00:38:26;12.80;99.90
16485;DHT22;8353;47.856;12.344;2022-11-04T00:40:57;12.80;99.90
16485;DHT22;8353;47.856;12.344;2022-11-04T00:43:27;12.80;99.90
16485;DHT22;8353;47.856;12.344;2022-11-04T00:45:59;12.80;99.90
16485;DHT22;8353;47.856;12.344;2022-11-04T00:48:29;12.80;99.90
16485;DHT22;8353;47.856;12.344;2022-11-04T00:51:00;12.80;99.90
16485;DHT22;8353;47.856;12.344;2022-11-04T00:53:30;12.90;99.90
16485;DHT22;8353;47.856;12.344;2022-11-04T00:56:00;12.80;99.90
16485;DHT22;8353;47.856;12.344;2022-11-04T00:58:31;12.70;99.90
16485;DHT22;8353;47.856;12.344;2022-11-04T01:01:08;12.70;99.90
16485;DHT22;8353;47.856;12.344;2022-11-04T01:03:38;12.80;99.90
16485;DHT22;8353;47.856;12.344;2022-11-04T01:06:09;12.70;99.90
16485;DHT22;8353;47.856;12.344;2022-11-04T01:08:39;12.70;99.90
16485;DHT22;8353;47.856;12.344;2022-11-04T01:11:10;12.60;99.90
16485;DHT22;8353;47.856;12.344;2022-11-04T01:13:41;12.70;99.90
16485;DHT22;8353;47.856;12.344;2022-11-04T01:16:12;12.70;99.90
16485;DHT22;8353;47.856;12.344;2022-11-04T01:18:43;12.70;99.90
16485;DHT22;8353;47.856;12.344;2022-11-04T01:21:15;12.70;99.90
16485;DHT22;8353;47.856;12.344;2022-11-04T01:23:46;12.60;99.90
16485;DHT22;8353;47.856;12.344;2022-11-04T01:26:18;12.60;99.90
16485;DHT22;8353;47.856;12.344;2022-11-04T01:28:49;12.60;99.90
16485;DHT22;8353;47.856;12.344;2022-11-04T01:31:23;12.60;99.90
16485;DHT22;8353;47.856;12.344;2022-11-04T01:33:54;12.60;99.90
16485;DHT22;8353;47.856;12.344;2022-11-04T01:36:25;12.50;99.90
16485;DHT22;8353;47.856;12.344;2022-11-04T01:38:56;12.40;99.90
16485;DHT22;8353;47.856;12.344;2022-11-04T01:41:28;12.30;99.90
16485;DHT22;8353;47.856;12.344;2022-11-04T01:44:02;12.20;99.90
16485;DHT22;8353;47.856;12.344;2022-11-04T01:46:36;12.10;99.90
16485;DHT22;8353;47.856;12.344;2022-11-04T01:49:22;12.00;99.90
16485;DHT22;8353;47.856;12.344;2022-11-04T01:51:57;11.90;99.90
16485;DHT22;8353;47.856;12.344;2022-11-04T01:54:30;11.80;99.90
16485;DHT22;8353;47.856;12.344;2022-11-04T01:57:02;11.60;99.90
16485;DHT22;8353;47.856;12.344;2022-11-04T01:59:37;11.60;99.90
16485;DHT22;8353;47.856;12.344;2022-11-04T02:02:10;11.50;99.90
16485;DHT22;8353;47.856;12.344;2022-11-04T02:04:42;11.50;99.90
16485;DHT22;8353;47.856;12.344;2022-11-04T02:07:13;11.50;99.90
16485;DHT22;8353;47.856;12.344;2022-11-04T02:09:44;11.50;99.90
16485;DHT22;8353;47.856;12.344;2022-11-04T02:12:14;11.50;99.90
16485;DHT22;8353;47.856;12.344;2022-11-04T02:15:04;11.50;99.90
16485;DHT22;8353;47.856;12.344;2022-11-04T02:17:49;11.50;99.90
16485;DHT22;8353;47.856;12.344;2022-11-04T02:20:33;11.50;99.90
16485;DHT22;8353;47.856;12.344;2022-11-04T02:23:25;11.30;99.90
16485;DHT22;8353;47.856;12.344;2022-11-04T02:29:28;11.30;99.90
16485;DHT22;8353;47.856;12.344;2022-11-04T02:32:08;11.30;99.90
16485;DHT22;8353;47.856;12.344;2022-11-04T02:34:51;11.30;99.90
16485;DHT22;8353;47.856;12.344;2022-11-04T02:37:33;11.20;99.90
16485;DHT22;8353;47.856;12.344;2022-11-04T02:40:15;11.30;99.90
16485;DHT22;8353;47.856;12.344;2022-11-04T02:42:52;11.20;99.90
16485;DHT22;8353;47.856;12.344;2022-11-04T02:45:32;11.20;99.90
16485;DHT22;8353;47.856;12.344;2022-11-04T02:48:08;11.30;99.90
16485;DHT22;8353;47.856;12.344;2022-11-04T02:50:44;11.20;99.90
16485;DHT22;8353;47.856;12.344;2022-11-04T02:53:35;11.00;99.90
16485;DHT22;8353;47.856;12.344;2022-11-04T02:56:09;11.00;99.90
16485;DHT22;8353;47.856;12.344;2022-11-04T02:58:44;11.00;99.90
16485;DHT22;8353;47.856;12.344;2022-11-04T03:01:20;11.20;99.90
16485;DHT22;8353;47.856;12.344;2022-11-04T03:03:55;11.20;99.90
16485;DHT22;8353;47.856;12.344;2022-11-04T03:06:29;11.10;99.90
16485;DHT22;8353;47.856;12.344;2022-11-04T03:09:00;11.10;99.90
16485;DHT22;8353;47.856;12.344;2022-11-04T03:11:31;11.00;99.90
16485;DHT22;8353;47.856;12.344;2022-11-04T03:14:04;11.00;99.90
16485;DHT22;8353;47.856;12.344;2022-11-04T03:16:39;11.10;99.90
16485;DHT22;8353;47.856;12.344;2022-11-04T03:19:12;11.10;99.90
16485;DHT22;8353;47.856;12.344;2022-11-04T03:21:53;11.20;99.90
16485;DHT22;8353;47.856;12.344;2022-11-04T03:24:28;11.30;99.90
16485;DHT22;8353;47.856;12.344;2022-11-04T03:27:01;11.20;99.90
16485;DHT22;8353;47.856;12.344;2022-11-04T03:29:35;11.30;99.90
16485;DHT22;8353;47.856;12.344;2022-11-04T03:32:14;11.20;99.90
16485;DHT22;8353;47.856;12.344;2022-11-04T03:34:48;11.20;99.90
16485;DHT22;8353;47.856;12.344;2022-11-04T03:37:19;11.30;99.90
16485;DHT22;8353;47.856;12.344;2022-11-04T03:39:50;11.40;99.90
16485;DHT22;8353;47.856;12.344;2022-11-04T03:42:24;11.40;99.90
16485;DHT22;8353;47.856;12.344;2022-11-04T03:44:57;11.20;99.90
16485;DHT22;8353;47.856;12.344;2022-11-04T03:47:30;11.20;99.90
16485;DHT22;8353;47.856;12.344;2022-11-04T03:50:05;11.20;99.90
16485;DHT22;8353;47.856;12.344;2022-11-04T03:52:37;11.20;99.90
16485;DHT22;8353;47.856;12.344;2022-11-04T03:55:09;11.20;99.90
16485;DHT22;8353;47.856;12.344;2022-11-04T03:57:47;11.20;99.90
16485;DHT22;8353;47.856;12.344;2022-11-04T04:00:20;11.20;99.90
16485;DHT22;8353;47.856;12.344;2022-11-04T04:03:14;11.20;99.90
16485;DHT22;8353;47.856;12.344;2022-11-04T04:05:51;11.30;99.90
16485;DHT22;8353;47.856;12.344;2022-11-04T04:08:32;11.40;99.90
16485;DHT22;8353;47.856;12.344;2022-11-04T04:11:08;11.50;99.90
16485;DHT22;8353;47.856;12.344;2022-11-04T04:13:44;11.50;99.90
16485;DHT22;8353;47.856;12.344;2022-11-04T04:16:16;11.40;99.90
16485;DHT22;8353;47.856;12.344;2022-11-04T04:18:55;11.50;99.90
16485;DHT22;8353;47.856;12.344;2022-11-04T04:21:29;11.50;99.90
16485;DHT22;8353;47.856;12.344;2022-11-04T04:24:03;11.50;99.90
16485;DHT22;8353;47.856;12.344;2022-11-04T04:26:53;11.60;99.90
16485;DHT22;8353;47.856;12.344;2022-11-04T04:29:43;11.60;99.90
16485;DHT22;8353;47.856;12.344;2022-11-04T04:32:15;11.60;99.90
16485;DHT22;8353;47.856;12.344;2022-11-04T04:34:48;11.60;99.90
16485;DHT22;8353;47.856;12.344;2022-11-04T04:37:20;11.50;99.90
16485;DHT22;8353;47.856;12.344;2022-11-04T04:39:53;11.60;99.90
16485;DHT22;8353;47.856;12.344;2022-11-04T04:42:41;11.60;99.90
16485;DHT22;8353;47.856;12.344;2022-11-04T04:45:49;11.60;99.90
16485;DHT22;8353;47.856;12.344;2022-11-04T04:48:20;11.60;99.90
16485;DHT22;8353;47.856;12.344;2022-11-04T04:50:55;11.60;99.90
16485;DHT22;8353;47.856;12.344;2022-11-04T04:53:30;11.60;99.90
16485;DHT22;8353;47.856;12.344;2022-11-04T04:56:01;11.60;99.90
16485;DHT22;8353;47.856;12.344;2022-11-04T04:58:31;11.50;99.90
16485;DHT22;8353;47.856;12.344;2022-11-04T05:01:02;11.50;99.90
16485;DHT22;8353;47.856;12.344;2022-11-04T05:03:33;11.40;99.90
16485;DHT22;8353;47.856;12.344;2022-11-04T05:06:05;11.50;99.90
16485;DHT22;8353;47.856;12.344;2022-11-04T05:08:36;11.50;99.90
16485;DHT22;8353;47.856;12.344;2022-11-04T05:11:06;11.50;99.90
16485;DHT22;8353;47.856;12.344;2022-11-04T05:13:37;11.60;99.90
16485;DHT22;8353;47.856;12.344;2022-11-04T05:16:08;11.50;99.90
16485;DHT22;8353;47.856;12.344;2022-11-04T05:18:39;11.40;99.90
16485;DHT22;8353;47.856;12.344;2022-11-04T05:21:13;11.40;99.90
16485;DHT22;8353;47.856;12.344;2022-11-04T05:23:44;11.60;99.90
16485;DHT22;8353;47.856;12.344;2022-11-04T05:26:14;11.50;99.90
16485;DHT22;8353;47.856;12.344;2022-11-04T05:28:45;11.50;99.90
16485;DHT22;8353;47.856;12.344;2022-11-04T05:31:16;11.50;99.90
16485;DHT22;8353;47.856;12.344;2022-11-04T05:33:46;11.50;99.90
16485;DHT22;8353;47.856;12.344;2022-11-04T05:36:18;11.50;99.90
16485;DHT22;8353;47.856;12.344;2022-11-04T05:38:49;11.40;99.90
16485;DHT22;8353;47.856;12.344;2022-11-04T05:41:21;11.40;99.90
16485;DHT22;8353;47.856;12.344;2022-11-04T05:43:55;11.40;99.90
16485;DHT22;8353;47.856;12.344;2022-11-04T05:46:27;11.40;99.90
16485;DHT22;8353;47.856;12.344;2022-11-04T05:48:57;11.40;99.90
16485;DHT22;8353;47.856;12.344;2022-11-04T05:51:29;11.40;99.90
16485;DHT22;8353;47.856;12.344;2022-11-04T05:54:00;11.30;99.90
16485;DHT22;8353;47.856;12.344;2022-11-04T05:56:30;11.20;99.90
16485;DHT22;8353;47.856;12.344;2022-11-04T05:59:01;11.20;99.90
16485;DHT22;8353;47.856;12.344;2022-11-04T06:01:33;11.20;99.90
16485;DHT22;8353;47.856;12.344;2022-11-04T06:04:05;11.10;99.90
16485;DHT22;8353;47.856;12.344;2022-11-04T06:06:38;11.10;99.90
16485;DHT22;8353;47.856;12.344;2022-11-04T06:09:09;11.20;99.90
16485;DHT22;8353;47.856;12.344;2022-11-04T06:11:40;11.00;99.90
16485;DHT22;8353;47.856;12.344;2022-11-04T06:14:10;11.10;99.90
16485;DHT22;8353;47.856;12.344;2022-11-04T06:16:40;11.10;99.90
16485;DHT22;8353;47.856;12.344;2022-11-04T06:19:11;11.10;99.90
16485;DHT22;8353;47.856;12.344;2022-11-04T06:21:42;11.20;99.90
16485;DHT22;8353;47.856;12.344;2022-11-04T06:24:12;11.20;99.90
16485;DHT22;8353;47.856;12.344;2022-11-04T06:26:43;11.20;99.90
16485;DHT22;8353;47.856;12.344;2022-11-04T06:29:14;11.10;99.90
16485;DHT22;8353;47.856;12.344;2022-11-04T06:31:44;11.10;99.90
16485;DHT22;8353;47.856;12.344;2022-11-04T06:34:14;11.20;99.90
16485;DHT22;8353;47.856;12.344;2022-11-04T06:36:47;11.20;99.90
16485;DHT22;8353;47.856;12.344;2022-11-04T06:39:18;11.30;99.90
16485;DHT22;8353;47.856;12.344;2022-11-04T06:41:48;11.30;99.90
16485;DHT22;8353;47.856;12.344;2022-11-04T06:44:18;11.10;99.90
16485;DHT22;8353;47.856;12.344;2022-11-04T06:46:48;11.00;99.90
16485;DHT22;8353;47.856;12.344;2022-11-04T06:49:20;11.00;99.90
16485;DHT22;8353;47.856;12.344;2022-11-04T06:51:52;11.00;99.90
16485;DHT22;8353;47.856;12.344;2022-11-04T06:54:22;11.00;99.90
16485;DHT22;8353;47.856;12.344;2022-11-04T06:56:53;10.90;99.90
16485;DHT22;8353;47.856;12.344;2022-11-04T06:59:23;11.00;99.90
16485;DHT22;8353;47.856;12.344;2022-11-04T07:01:54;11.00;99.90
16485;DHT22;8353;47.856;12.344;2022-11-04T07:04:24;11.10;99.90
16485;DHT22;8353;47.856;12.344;2022-11-04T07:06:56;11.00;99.90
16485;DHT22;8353;47.856;12.344;2022-11-04T07:09:26;11.10;99.90
16485;DHT22;8353;47.856;12.344;2022-11-04T07:11:57;11.10;99.90
16485;DHT22;8353;47.856;12.344;2022-11-04T07:14:28;10.90;99.90
16485;DHT22;8353;47.856;12.344;2022-11-04T07:16:59;10.90;99.90
16485;DHT22;8353;47.856;12.344;2022-11-04T07:19:29;10.90;99.90
16485;DHT22;8353;47.856;12.344;2022-11-04T07:22:02;10.90;99.90
16485;DHT22;8353;47.856;12.344;2022-11-04T07:24:32;11.00;99.90
16485;DHT22;8353;47.856;12.344;2022-11-04T07:27:03;11.10;99.90
16485;DHT22;8353;47.856;12.344;2022-11-04T07:29:35;11.10;99.90
16485;DHT22;8353;47.856;12.344;2022-11-04T07:32:05;11.20;99.90
16485;DHT22;8353;47.856;12.344;2022-11-04T07:34:36;11.00;99.90
16485;DHT22;8353;47.856;12.344;2022-11-04T07:37:07;11.10;99.90
16485;DHT22;8353;47.856;12.344;2022-11-04T07:39:37;11.10;99.90
16485;DHT22;8353;47.856;12.344;2022-11-04T07:42:08;11.10;99.90
16485;DHT22;8353;47.856;12.344;2022-11-04T07:44:38;11.10;99.90
16485;DHT22;8353;47.856;12.344;2022-11-04T07:47:08;11.10;99.90
16485;DHT22;8353;47.856;12.344;2022-11-04T07:49:39;11.10;99.90
16485;DHT22;8353;47.856;12.344;2022-11-04T07:52:11;11.10;99.90
16485;DHT22;8353;47.856;12.344;2022-11-04T07:54:41;11.20;99.90
16485;DHT22;8353;47.856;12.344;2022-11-04T07:57:13;11.10;99.90
16485;DHT22;8353;47.856;12.344;2022-11-04T07:59:43;11.00;99.90
16485;DHT22;8353;47.856;12.344;2022-11-04T08:02:14;11.10;99.90
16485;DHT22;8353;47.856;12.344;2022-11-04T08:04:44;11.20;99.90
16485;DHT22;8353;47.856;12.344;2022-11-04T08:07:16;11.10;99.90
16485;DHT22;8353;47.856;12.344;2022-11-04T08:09:46;11.00;99.90
16485;DHT22;8353;47.856;12.344;2022-11-04T08:12:17;10.90;99.90
16485;DHT22;8353;47.856;12.344;2022-11-04T08:14:49;10.90;99.90
16485;DHT22;8353;47.856;12.344;2022-11-04T08:17:20;11.00;99.90
16485;DHT22;8353;47.856;12.344;2022-11-04T08:19:51;10.90;99.90
16485;DHT22;8353;47.856;12.344;2022-11-04T08:22:22;10.70;99.90
16485;DHT22;8353;47.856;12.344;2022-11-04T08:24:53;10.50;99.90
16485;DHT22;8353;47.856;12.344;2022-11-04T08:27:24;10.40;99.90
16485;DHT22;8353;47.856;12.344;2022-11-04T08:29:54;10.40;99.90
16485;DHT22;8353;47.856;12.344;2022-11-04T08:32:25;10.40;99.90
16485;DHT22;8353;47.856;12.344;2022-11-04T08:34:56;10.40;99.90
16485;DHT22;8353;47.856;12.344;2022-11-04T08:37:27;10.40;99.90
16485;DHT22;8353;47.856;12.344;2022-11-04T08:39:58;10.40;99.90
16485;DHT22;8353;47.856;12.344;2022-11-04T08:42:29;10.50;99.90
16485;DHT22;8353;47.856;12.344;2022-11-04T08:45:00;10.50;99.90
16485;DHT22;8353;47.856;12.344;2022-11-04T08:47:31;10.50;99.90
16485;DHT22;8353;47.856;12.344;2022-11-04T08:50:01;10.60;99.90
16485;DHT22;8353;47.856;12.344;2022-11-04T08:52:34;10.60;99.90
16485;DHT22;8353;47.856;12.344;2022-11-04T08:55:06;10.50;99.90
16485;DHT22;8353;47.856;12.344;2022-11-04T08:57:36;10.50;99.90
16485;DHT22;8353;47.856;12.344;2022-11-04T09:00:08;10.50;99.90
16485;DHT22;8353;47.856;12.344;2022-11-04T09:02:39;10.50;99.90
16485;DHT22;8353;47.856;12.344;2022-11-04T09:05:09;10.50;99.90
16485;DHT22;8353;47.856;12.344;2022-11-04T09:07:41;10.40;99.90
16485;DHT22;8353;47.856;12.344;2022-11-04T09:10:12;10.40;99.90
16485;DHT22;8353;47.856;12.344;2022-11-04T09:12:43;10.50;99.90
16485;DHT22;8353;47.856;12.344;2022-11-04T09:15:14;10.50;99.90
16485;DHT22;8353;47.856;12.344;2022-11-04T09:17:44;10.50;99.90
16485;DHT22;8353;47.856;12.344;2022-11-04T09:20:14;10.30;99.90
16485;DHT22;8353;47.856;12.344;2022-11-04T09:22:46;10.40;99.90
16485;DHT22;8353;47.856;12.344;2022-11-04T09:25:18;10.20;99.90
16485;DHT22;8353;47.856;12.344;2022-11-04T09:27:48;10.30;99.90
16485;DHT22;8353;47.856;12.344;2022-11-04T09:30:19;10.30;99.90
16485;DHT22;8353;47.856;12.344;2022-11-04T09:32:49;10.20;99.90
16485;DHT22;8353;47.856;12.344;2022-11-04T09:35:20;10.20;99.90
16485;DHT22;8353;47.856;12.344;2022-11-04T09:37:52;10.20;99.90
16485;DHT22;8353;47.856;12.344;2022-11-04T09:40:24;10.20;99.90
16485;DHT22;8353;47.856;12.344;2022-11-04T09:43:08;10.20;99.90
16485;DHT22;8353;47.856;12.344;2022-11-04T09:45:43;10.20;99.90
16485;DHT22;8353;47.856;12.344;2022-11-04T09:48:20;10.30;99.90
16485;DHT22;8353;47.856;12.344;2022-11-04T09:50:57;10.30;99.90
16485;DHT22;8353;47.856;12.344;2022-11-04T09:53:36;10.20;99.90
16485;DHT22;8353;47.856;12.344;2022-11-04T09:56:13;10.10;99.90
16485;DHT22;8353;47.856;12.344;2022-11-04T09:58:45;10.10;99.90
16485;DHT22;8353;47.856;12.344;2022-11-04T10:01:22;10.00;99.90
16485;DHT22;8353;47.856;12.344;2022-11-04T10:04:12;10.10;99.90
16485;DHT22;8353;47.856;12.344;2022-11-04T10:07:01;10.20;99.90
16485;DHT22;8353;47.856;12.344;2022-11-04T10:09:43;10.10;99.90
16485;DHT22;8353;47.856;12.344;2022-11-04T10:12:23;10.00;99.90
16485;DHT22;8353;47.856;12.344;2022-11-04T10:15:12;9.90;99.90
16485;DHT22;8353;47.856;12.344;2022-11-04T10:17:59;10.10;99.90
16485;DHT22;8353;47.856;12.344;2022-11-04T10:20:50;10.10;99.90
16485;DHT22;8353;47.856;12.344;2022-11-04T10:23:30;10.20;99.90
16485;DHT22;8353;47.856;12.344;2022-11-04T10:26:13;10.20;99.90
16485;DHT22;8353;47.856;12.344;2022-11-04T10:28:48;10.20;99.90
16485;DHT22;8353;47.856;12.344;2022-11-04T10:31:20;10.20;99.90
16485;DHT22;8353;47.856;12.344;2022-11-04T10:33:54;10.10;99.90
16485;DHT22;8353;47.856;12.344;2022-11-04T10:36:27;10.10;99.90
16485;DHT22;8353;47.856;12.344;2022-11-04T10:39:02;10.00;99.90
16485;DHT22;8353;47.856;12.344;2022-11-04T10:41:37;9.80;99.90
16485;DHT22;8353;47.856;12.344;2022-11-04T10:44:21;9.80;99.90
16485;DHT22;8353;47.856;12.344;2022-11-04T10:47:01;9.90;99.90
16485;DHT22;8353;47.856;12.344;2022-11-04T10:50:03;9.80;99.90
16485;DHT22;8353;47.856;12.344;2022-11-04T10:52:43;9.70;99.90
16485;DHT22;8353;47.856;12.344;2022-11-04T10:55:24;9.70;99.90
16485;DHT22;8353;47.856;12.344;2022-11-04T10:57:58;9.80;99.90
16485;DHT22;8353;47.856;12.344;2022-11-04T11:00:37;9.80;99.90
16485;DHT22;8353;47.856;12.344;2022-11-04T11:03:22;9.60;99.90
16485;DHT22;8353;47.856;12.344;2022-11-04T11:06:09;9.60;99.90
16485;DHT22;8353;47.856;12.344;2022-11-04T11:08:41;9.70;99.90
16485;DHT22;8353;47.856;12.344;2022-11-04T11:11:13;9.80;99.90
16485;DHT22;8353;47.856;12.344;2022-11-04T11:13:45;9.80;99.90
16485;DHT22;8353;47.856;12.344;2022-11-04T11:16:17;9.80;99.90
16485;DHT22;8353;47.856;12.344;2022-11-04T11:19:12;9.80;99.90
16485;DHT22;8353;47.856;12.344;2022-11-04T11:21:44;9.80;99.90
16485;DHT22;8353;47.856;12.344;2022-11-04T11:24:19;9.60;99.90
16485;DHT22;8353;47.856;12.344;2022-11-04T11:26:52;9.60;99.90
16485;DHT22;8353;47.856;12.344;2022-11-04T11:29:27;9.50;99.90
16485;DHT22;8353;47.856;12.344;2022-11-04T11:31:59;9.50;99.90
16485;DHT22;8353;47.856;12.344;2022-11-04T11:34:32;9.50;99.90
16485;DHT22;8353;47.856;12.344;2022-11-04T11:37:20;9.60;99.90
16485;DHT22;8353;47.856;12.344;2022-11-04T11:39:52;9.60;99.90
16485;DHT22;8353;47.856;12.344;2022-11-04T11:42:23;9.60;99.90
16485;DHT22;8353;47.856;12.344;2022-11-04T11:44:57;9.60;99.90
16485;DHT22;8353;47.856;12.344;2022-11-04T11:47:34;9.50;99.90
16485;DHT22;8353;47.856;12.344;2022-11-04T11:50:14;9.60;99.90
16485;DHT22;8353;47.856;12.344;2022-11-04T11:52:45;9.40;99.90
16485;DHT22;8353;47.856;12.344;2022-11-04T11:55:20;9.50;99.90
16485;DHT22;8353;47.856;12.344;2022-11-04T11:57:59;9.60;99.90
16485;DHT22;8353;47.856;12.344;2022-11-04T12:00:38;9.50;99.90
16485;DHT22;8353;47.856;12.344;2022-11-04T12:03:14;9.60;99.90
16485;DHT22;8353;47.856;12.344;2022-11-04T12:05:54;9.30;99.90
16485;DHT22;8353;47.856;12.344;2022-11-04T12:08:55;9.40;99.90
16485;DHT22;8353;47.856;12.344;2022-11-04T12:11:36;9.60;99.90
16485;DHT22;8353;47.856;12.344;2022-11-04T12:14:14;9.60;99.90
16485;DHT22;8353;47.856;12.344;2022-11-04T12:16:54;9.60;99.90
16485;DHT22;8353;47.856;12.344;2022-11-04T12:19:37;9.40;99.90
16485;DHT22;8353;47.856;12.344;2022-11-04T12:22:15;9.00;99.90
16485;DHT22;8353;47.856;12.344;2022-11-04T12:24:54;8.90;99.90
16485;DHT22;8353;47.856;12.344;2022-11-04T12:27:31;8.70;99.90
16485;DHT22;8353;47.856;12.344;2022-11-04T12:30:07;8.50;99.90
16485;DHT22;8353;47.856;12.344;2022-11-04T12:32:50;8.50;99.90
16485;DHT22;8353;47.856;12.344;2022-11-04T12:35:38;8.50;99.90
16485;DHT22;8353;47.856;12.344;2022-11-04T12:38:24;8.70;99.90
16485;DHT22;8353;47.856;12.344;2022-11-04T12:41:06;8.70;99.90
16485;DHT22;8353;47.856;12.344;2022-11-04T12:43:44;8.80;99.90
16485;DHT22;8353;47.856;12.344;2022-11-04T12:46:21;8.90;99.90
16485;DHT22;8353;47.856;12.344;2022-11-04T12:51:57;9.00;99.90
16485;DHT22;8353;47.856;12.344;2022-11-04T12:54:41;9.10;99.90
16485;DHT22;8353;47.856;12.344;2022-11-04T12:57:21;9.30;99.90
16485;DHT22;8353;47.856;12.344;2022-11-04T13:00:09;9.00;99.90
16485;DHT22;8353;47.856;12.344;2022-11-04T13:02:44;9.20;99.90
16485;DHT22;8353;47.856;12.344;2022-11-04T13:05:36;9.20;99.90
16485;DHT22;8353;47.856;12.344;2022-11-04T13:08:15;9.50;99.90
16485;DHT22;8353;47.856;12.344;2022-11-04T13:10:53;9.50;99.90
16485;DHT22;8353;47.856;12.344;2022-11-04T13:13:27;9.60;99.90
16485;DHT22;8353;47.856;12.344;2022-11-04T13:16:04;9.40;99.90
16485;DHT22;8353;47.856;12.344;2022-11-04T13:18:38;9.50;99.90
16485;DHT22;8353;47.856;12.344;2022-11-04T13:21:15;9.60;99.90
16485;DHT22;8353;47.856;12.344;2022-11-04T13:23:51;9.70;99.90
16485;DHT22;8353;47.856;12.344;2022-11-04T13:26:22;9.70;99.90
16485;DHT22;8353;47.856;12.344;2022-11-04T13:28:56;9.80;99.90
16485;DHT22;8353;47.856;12.344;2022-11-04T13:31:36;9.80;99.90
16485;DHT22;8353;47.856;12.344;2022-11-04T13:34:17;9.80;99.90
16485;DHT22;8353;47.856;12.344;2022-11-04T13:36:59;9.80;99.90
16485;DHT22;8353;47.856;12.344;2022-11-04T13:39:38;9.70;99.90
16485;DHT22;8353;47.856;12.344;2022-11-04T13:42:22;9.70;99.90
16485;DHT22;8353;47.856;12.344;2022-11-04T13:44:57;9.80;99.90
16485;DHT22;8353;47.856;12.344;2022-11-04T13:47:34;9.90;99.90
16485;DHT22;8353;47.856;12.344;2022-11-04T13:50:12;10.00;99.90
16485;DHT22;8353;47.856;12.344;2022-11-04T13:52:57;10.10;99.90
16485;DHT22;8353;47.856;12.344;2022-11-04T13:55:30;10.20;99.90
16485;DHT22;8353;47.856;12.344;2022-11-04T13:58:23;10.20;99.90
16485;DHT22;8353;47.856;12.344;2022-11-04T14:01:24;10.30;99.90
16485;DHT22;8353;47.856;12.344;2022-11-04T14:04:05;10.30;99.90
16485;DHT22;8353;47.856;12.344;2022-11-04T14:06:48;10.30;99.90
16485;DHT22;8353;47.856;12.344;2022-11-04T14:09:50;10.30;99.90
16485;DHT22;8353;47.856;12.344;2022-11-04T14:12:31;10.30;99.90
16485;DHT22;8353;47.856;12.344;2022-11-04T14:15:12;10.30;99.90
16485;DHT22;8353;47.856;12.344;2022-11-04T14:18:03;10.20;99.90
16485;DHT22;8353;47.856;12.344;2022-11-04T14:20:34;10.20;99.90
16485;DHT22;8353;47.856;12.344;2022-11-04T14:23:20;10.10;99.90
16485;DHT22;8353;47.856;12.344;2022-11-04T14:26:00;10.10;99.90
16485;DHT22;8353;47.856;12.344;2022-11-04T14:28:33;10.00;99.90
16485;DHT22;8353;47.856;12.344;2022-11-04T14:31:04;10.00;99.90
16485;DHT22;8353;47.856;12.344;2022-11-04T14:33:39;10.10;99.90
16485;DHT22;8353;47.856;12.344;2022-11-04T14:36:21;10.00;99.90
16485;DHT22;8353;47.856;12.344;2022-11-04T14:38:55;10.10;99.90
16485;DHT22;8353;47.856;12.344;2022-11-04T14:41:48;10.10;99.90
16485;DHT22;8353;47.856;12.344;2022-11-04T14:44:27;10.20;99.90
16485;DHT22;8353;47.856;12.344;2022-11-04T14:47:04;10.10;99.90
16485;DHT22;8353;47.856;12.344;2022-11-04T14:49:43;10.10;99.90
16485;DHT22;8353;47.856;12.344;2022-11-04T14:52:21;10.00;99.90
16485;DHT22;8353;47.856;12.344;2022-11-04T14:54:56;9.80;99.90
16485;DHT22;8353;47.856;12.344;2022-11-04T14:57:30;9.80;99.90
16485;DHT22;8353;47.856;12.344;2022-11-04T15:00:25;9.70;99.90
16485;DHT22;8353;47.856;12.344;2022-11-04T15:03:12;9.80;99.90
16485;DHT22;8353;47.856;12.344;2022-11-04T15:05:49;9.70;99.90
16485;DHT22;8353;47.856;12.344;2022-11-04T15:08:27;9.80;99.90
16485;DHT22;8353;47.856;12.344;2022-11-04T15:11:05;9.70;99.90
16485;DHT22;8353;47.856;12.344;2022-11-04T15:13:42;9.50;99.90
16485;DHT22;8353;47.856;12.344;2022-11-04T15:16:15;9.50;99.90
16485;DHT22;8353;47.856;12.344;2022-11-04T15:18:48;9.50;99.90
16485;DHT22;8353;47.856;12.344;2022-11-04T15:21:19;9.50;99.90
16485;DHT22;8353;47.856;12.344;2022-11-04T15:23:52;9.40;99.90
16485;DHT22;8353;47.856;12.344;2022-11-04T15:26:25;9.50;99.90
16485;DHT22;8353;47.856;12.344;2022-11-04T15:29:00;9.60;99.90
16485;DHT22;8353;47.856;12.344;2022-11-04T15:31:32;9.60;99.90
16485;DHT22;8353;47.856;12.344;2022-11-04T15:34:05;9.60;99.90
16485;DHT22;8353;47.856;12.344;2022-11-04T15:36:38;9.60;99.90
16485;DHT22;8353;47.856;12.344;2022-11-04T15:39:12;9.60;99.90
16485;DHT22;8353;47.856;12.344;2022-11-04T15:41:44;9.60;99.90
16485;DHT22;8353;47.856;12.344;2022-11-04T15:44:36;9.70;99.90
16485;DHT22;8353;47.856;12.344;2022-11-04T15:47:21;9.60;99.90
16485;DHT22;8353;47.856;12.344;2022-11-04T15:49:53;9.50;99.90
16485;DHT22;8353;47.856;12.344;2022-11-04T15:52:30;9.50;99.90
16485;DHT22;8353;47.856;12.344;2022-11-04T15:55:02;9.60;99.90
16485;DHT22;8353;47.856;12.344;2022-11-04T15:57:37;9.60;99.90
16485;DHT22;8353;47.856;12.344;2022-11-04T16:00:20;9.60;99.90
16485;DHT22;8353;47.856;12.344;2022-11-04T16:02:59;9.70;99.90
16485;DHT22;8353;47.856;12.344;2022-11-04T16:05:33;9.70;99.90
16485;DHT22;8353;47.856;12.344;2022-11-04T16:08:20;9.70;99.90
16485;DHT22;8353;47.856;12.344;2022-11-04T16:11:07;9.70;99.90
16485;DHT22;8353;47.856;12.344;2022-11-04T16:13:38;9.70;99.90
16485;DHT22;8353;47.856;12.344;2022-11-04T16:16:20;9.70;99.90
16485;DHT22;8353;47.856;12.344;2022-11-04T16:18:53;9.70;99.90
16485;DHT22;8353;47.856;12.344;2022-11-04T16:21:26;9.60;99.90
16485;DHT22;8353;47.856;12.344;2022-11-04T16:24:01;9.50;99.90
16485;DHT22;8353;47.856;12.344;2022-11-04T16:26:37;9.40;99.90
16485;DHT22;8353;47.856;12.344;2022-11-04T16:29:14;9.40;99.90
16485;DHT22;8353;47.856;12.344;2022-11-04T16:32:14;9.30;99.90
16485;DHT22;8353;47.856;12.344;2022-11-04T16:34:48;9.20;99.90